M/y A.b.normal — 2DLI6 — position and weather

sailwx.info

Track history (hours):
 
Tides and Currents Weather Stations Pressure Air Temp Water Temp Dewpoint Dewpoint Depression Visibility Wind Speed Wind Dir Waves Ship Positions

M/y A.b.normal

Last reported at 2017-Aug-14 15:10 UTC. Time now 2017-Aug-18 04:53 UTC.
Position N 38°58' E 001°13'.

Length 28 m; draft 3 m.

Type: Pleasure craft. MMSI: 235079977.

Date/timePositionNaut miles runAvg speedWind from/ knotsBaromVisibWave heightAir tempDewpointWater temp
2017-Aug-14 15:10N 38°58' E 001°13'0 0.0
2017-Aug-14 10:58N 38°58' E 001°13'64 1.3
2017-Aug-12 10:20N 39°31' E 002°24'1 4.4
2017-Aug-12 10:00N 39°31' E 002°25'3 0.2
2017-Aug-11 17:00N 39°29' E 002°28'3 6.5
2017-Aug-11 16:30N 39°28' E 002°32'1 2.3
2017-Aug-11 16:00N 39°29' E 002°32'0 0.0
2017-Aug-11 15:30N 39°29' E 002°32'0 0.0
2017-Aug-11 15:00N 39°29' E 002°32'0 0.0
2017-Aug-11 14:30N 39°29' E 002°32'0 0.0
2017-Aug-11 13:30N 39°29' E 002°32'0 0.0
2017-Aug-11 13:00N 39°29' E 002°32'0 0.0
2017-Aug-11 12:30N 39°29' E 002°32'1 1.3
2017-Aug-11 12:00N 39°29' E 002°32'3 5.7
2017-Aug-11 11:29N 39°32' E 002°34'0 0.0
2017-Aug-11 11:01N 39°32' E 002°34'0 0.0
2017-Aug-11 10:30N 39°32' E 002°34'0 0.0
2017-Aug-11 10:01N 39°32' E 002°34'0 0.0
2017-Aug-11 09:30N 39°32' E 002°34'0 0.0
2017-Aug-11 09:00N 39°32' E 002°34'0 0.0
2017-Aug-11 08:30N 39°32' E 002°34'0 0.0
2017-Aug-11 08:00N 39°32' E 002°34'0 0.0
2017-Aug-11 07:31N 39°32' E 002°34'0 0.0
2017-Aug-11 07:00N 39°32' E 002°34'0 0.0
2017-Aug-11 06:29N 39°32' E 002°34'0 0.0
2017-Aug-11 05:57N 39°32' E 002°34'0 0.0
2017-Aug-11 05:30N 39°32' E 002°34'0 0.0
2017-Aug-11 04:59N 39°32' E 002°34'0 0.0
2017-Aug-11 04:30N 39°32' E 002°34'0 0.0
2017-Aug-11 04:00N 39°32' E 002°34'0 0.0
2017-Aug-11 03:30N 39°32' E 002°34'0 0.0
2017-Aug-11 03:00N 39°32' E 002°34'0 0.0
2017-Aug-11 02:30N 39°32' E 002°34'0 0.0
2017-Aug-11 02:00N 39°32' E 002°34'0 0.0
2017-Aug-11 01:30N 39°32' E 002°34'0 0.0
2017-Aug-11 01:00N 39°32' E 002°34'0 0.0
2017-Aug-11 00:30N 39°32' E 002°34'0 0.0
2017-Aug-11 00:00N 39°32' E 002°34'0 0.0
2017-Aug-10 23:30N 39°32' E 002°34'0 0.0
2017-Aug-10 23:00N 39°32' E 002°34'0 0.0
2017-Aug-10 22:30N 39°32' E 002°34'0 0.0
2017-Aug-10 22:00N 39°32' E 002°34'0 0.0
2017-Aug-10 21:31N 39°32' E 002°34'0 0.0
2017-Aug-10 21:00N 39°32' E 002°34'0 0.0
2017-Aug-10 20:30N 39°32' E 002°34'0 0.0
2017-Aug-10 20:00N 39°32' E 002°34'0 0.0
2017-Aug-10 19:30N 39°32' E 002°34'0 0.0
2017-Aug-10 19:00N 39°32' E 002°34'0 0.0
2017-Aug-10 18:29N 39°32' E 002°34'0 0.0
2017-Aug-10 18:00N 39°32' E 002°34'0 0.0
2017-Aug-10 17:30N 39°32' E 002°34'0 0.0
2017-Aug-10 17:00N 39°32' E 002°34'0 0.0
2017-Aug-10 16:30N 39°32' E 002°34'0 0.0
2017-Aug-10 16:00N 39°32' E 002°34'0 0.0
2017-Aug-10 15:30N 39°32' E 002°34'0 0.0
2017-Aug-10 14:59N 39°32' E 002°34'0 0.0
2017-Aug-10 14:30N 39°32' E 002°34'0 0.0
2017-Aug-10 14:00N 39°32' E 002°34'0 0.0
2017-Aug-10 13:30N 39°32' E 002°34'0 0.0
2017-Aug-10 13:00N 39°32' E 002°34'0 0.0
2017-Aug-10 12:29N 39°32' E 002°34'0 0.0
2017-Aug-10 12:00N 39°32' E 002°34'0 0.0
2017-Aug-10 11:30N 39°32' E 002°34'0 0.0
2017-Aug-10 11:00N 39°32' E 002°34'0 0.0
2017-Aug-10 10:30N 39°32' E 002°34'0 0.0
2017-Aug-10 10:00N 39°32' E 002°34'0 0.0
2017-Aug-10 09:30N 39°32' E 002°34'0 0.0
2017-Aug-10 09:00N 39°32' E 002°34'0 0.0
2017-Aug-10 08:30N 39°32' E 002°34'0 0.0
2017-Aug-10 08:00N 39°32' E 002°34'0 0.0
2017-Aug-10 07:30N 39°32' E 002°34'0 0.0
2017-Aug-10 07:00N 39°32' E 002°34'0 0.0
2017-Aug-10 06:30N 39°32' E 002°34'0 0.0
2017-Aug-10 06:00N 39°32' E 002°34'0 0.0
2017-Aug-10 05:30N 39°32' E 002°34'0 0.0
2017-Aug-10 05:00N 39°32' E 002°34'0 0.0
2017-Aug-10 04:30N 39°32' E 002°34'0 0.0
2017-Aug-10 04:01N 39°32' E 002°34'0 0.0
2017-Aug-10 03:30N 39°32' E 002°34'0 0.0
2017-Aug-10 03:00N 39°32' E 002°34'0 0.0
2017-Aug-10 02:30N 39°32' E 002°34'0 0.0
2017-Aug-10 02:00N 39°32' E 002°34'0 0.0
2017-Aug-10 01:30N 39°32' E 002°34'0 0.0
2017-Aug-10 01:00N 39°32' E 002°34'0 0.0
2017-Aug-10 00:30N 39°32' E 002°34'0 0.0
2017-Aug-10 00:00N 39°32' E 002°34'0 0.0
2017-Aug-09 23:30N 39°32' E 002°34'0 0.0
2017-Aug-09 23:00N 39°32' E 002°34'0 0.0
2017-Aug-09 22:30N 39°32' E 002°34'0 0.0
2017-Aug-09 22:00N 39°32' E 002°34'0 0.0
2017-Aug-09 21:30N 39°32' E 002°34'0 0.0
2017-Aug-09 21:00N 39°32' E 002°34'0 0.0
2017-Aug-09 20:30N 39°32' E 002°34'0 0.0
2017-Aug-09 19:59N 39°32' E 002°34'0 0.0
2017-Aug-09 19:30N 39°32' E 002°34'0 0.0
2017-Aug-09 18:59N 39°32' E 002°34'0 0.0
2017-Aug-09 18:30N 39°32' E 002°34'0 0.0
2017-Aug-09 18:00N 39°32' E 002°34'0 0.0
2017-Aug-09 17:30N 39°32' E 002°34'0 0.0
2017-Aug-09 17:00N 39°32' E 002°34'0 0.0
2017-Aug-09 16:30N 39°32' E 002°34'0 0.0
2017-Aug-09 16:00N 39°32' E 002°34'3 5.2
2017-Aug-09 15:30N 39°29' E 002°33'4 7.8
2017-Aug-09 15:00N 39°27' E 002°28'5 9.6
2017-Aug-09 14:30N 39°32' E 002°25'0 0.4
2017-Aug-09 13:19N 39°32' E 002°25'0 0.0
2017-Aug-09 12:34N 39°32' E 002°25'0 0.0
2017-Aug-09 12:19N 39°32' E 002°25'0 0.0
2017-Aug-09 11:55N 39°32' E 002°25'0 0.0
2017-Aug-09 11:30N 39°32' E 002°25'0 0.0
2017-Aug-09 10:48N 39°32' E 002°25'0 0.0
2017-Aug-09 10:27N 39°32' E 002°25'0 0.2
2017-Aug-09 09:40N 39°32' E 002°25'1 7.7
2017-Aug-09 09:30N 39°31' E 002°25'510.0
2017-Aug-09 09:00N 39°27' E 002°30'4 9.0
2017-Aug-09 08:31N 39°31' E 002°33'1 2.8
2017-Aug-09 08:00N 39°32' E 002°34'0 0.0
2017-Aug-09 07:30N 39°32' E 002°34'0 0.0
2017-Aug-09 07:00N 39°32' E 002°34'0 0.0
2017-Aug-09 06:30N 39°32' E 002°34'0 0.0
2017-Aug-09 06:00N 39°32' E 002°34'0 0.0
2017-Aug-09 05:31N 39°32' E 002°34'0 0.0
2017-Aug-09 05:01N 39°32' E 002°34'0 0.0
2017-Aug-09 04:30N 39°32' E 002°34'0 0.0
2017-Aug-09 04:00N 39°32' E 002°34'0 0.0
2017-Aug-09 03:30N 39°32' E 002°34'0 0.0
2017-Aug-09 03:01N 39°32' E 002°34'0 0.0
2017-Aug-09 02:30N 39°32' E 002°34'0 0.0
2017-Aug-09 02:00N 39°32' E 002°34'0 0.0
2017-Aug-09 01:30N 39°32' E 002°34'0 0.0
2017-Aug-09 01:00N 39°32' E 002°34'0 0.0
2017-Aug-09 00:30N 39°32' E 002°34'0 0.0
2017-Aug-09 00:00N 39°32' E 002°34'0 0.0
2017-Aug-08 23:30N 39°32' E 002°34'0 0.0
2017-Aug-08 23:00N 39°32' E 002°34'0 0.0
2017-Aug-08 22:30N 39°32' E 002°34'0 0.0
2017-Aug-08 22:00N 39°32' E 002°34'0 0.0
2017-Aug-08 21:30N 39°32' E 002°34'0 0.0
2017-Aug-08 21:00N 39°32' E 002°34'0 0.0
2017-Aug-08 20:30N 39°32' E 002°34'0 0.0
2017-Aug-08 20:00N 39°32' E 002°34'0 0.0
2017-Aug-08 19:30N 39°32' E 002°34'0 0.0
2017-Aug-08 19:00N 39°32' E 002°34'0 0.0
2017-Aug-08 18:30N 39°32' E 002°34'0 0.0
2017-Aug-08 18:00N 39°32' E 002°34'0 0.0
2017-Aug-08 17:30N 39°32' E 002°34'0 0.0
2017-Aug-08 17:00N 39°32' E 002°34'0 0.0
2017-Aug-08 16:30N 39°32' E 002°34'0 0.0
2017-Aug-08 16:00N 39°32' E 002°34'0 0.0
2017-Aug-08 15:30N 39°32' E 002°34'0 0.0
2017-Aug-08 15:00N 39°32' E 002°34'0 0.0
2017-Aug-08 14:28N 39°32' E 002°34'0 0.0
2017-Aug-08 14:00N 39°32' E 002°34'0 0.0
2017-Aug-08 13:30N 39°32' E 002°34'0 0.0
2017-Aug-08 13:00N 39°32' E 002°34'0 0.0
2017-Aug-08 12:30N 39°32' E 002°34'0 0.0
2017-Aug-08 12:00N 39°32' E 002°34'0 0.0
2017-Aug-08 11:31N 39°32' E 002°34'0 0.0
2017-Aug-08 11:00N 39°32' E 002°34'0 0.0
2017-Aug-08 10:30N 39°32' E 002°34'0 0.0
2017-Aug-08 10:00N 39°32' E 002°34'0 0.0
2017-Aug-08 09:29N 39°32' E 002°34'0 0.0
2017-Aug-08 09:00N 39°32' E 002°34'0 0.0
2017-Aug-08 08:30N 39°32' E 002°34'0 0.0
2017-Aug-08 08:00N 39°32' E 002°34'0 0.0
2017-Aug-08 07:31N 39°32' E 002°34'0 0.0
2017-Aug-08 07:00N 39°32' E 002°34'0 0.0
2017-Aug-08 06:30N 39°32' E 002°34'0 0.0
2017-Aug-08 06:00N 39°32' E 002°34'0 0.0
2017-Aug-08 05:31N 39°32' E 002°34'0 0.0
2017-Aug-08 05:01N 39°32' E 002°34'0 0.0
2017-Aug-08 04:30N 39°32' E 002°34'0 0.0
2017-Aug-08 04:00N 39°32' E 002°34'0 0.0
2017-Aug-08 03:30N 39°32' E 002°34'0 0.0
2017-Aug-08 03:00N 39°32' E 002°34'0 0.0
2017-Aug-08 02:30N 39°32' E 002°34'0 0.0
2017-Aug-08 02:00N 39°32' E 002°34'0 0.0
2017-Aug-08 01:30N 39°32' E 002°34'0 0.0
2017-Aug-08 01:00N 39°32' E 002°34'0 0.0
2017-Aug-08 00:30N 39°32' E 002°34'0 0.0
2017-Aug-08 00:00N 39°32' E 002°34'0 0.0
2017-Aug-07 23:30N 39°32' E 002°34'0 0.0
2017-Aug-07 23:00N 39°32' E 002°34'0 0.0
2017-Aug-07 22:29N 39°32' E 002°34'0 0.0
2017-Aug-07 22:00N 39°32' E 002°34'0 0.0
2017-Aug-07 21:30N 39°32' E 002°34'0 0.0
2017-Aug-07 21:00N 39°32' E 002°34'0 0.0
2017-Aug-07 20:30N 39°32' E 002°34'0 0.0
2017-Aug-07 20:00N 39°32' E 002°34'0 0.0
2017-Aug-07 19:30N 39°32' E 002°34'0 0.0
2017-Aug-07 19:00N 39°32' E 002°34'0 0.0
2017-Aug-07 18:30N 39°32' E 002°34'0 0.0
2017-Aug-07 18:00N 39°32' E 002°34'0 0.0
2017-Aug-07 17:30N 39°32' E 002°34'0 0.0
2017-Aug-07 17:00N 39°32' E 002°34'0 0.0
2017-Aug-07 16:30N 39°32' E 002°34'0 0.0
2017-Aug-07 16:00N 39°32' E 002°34'0 0.0
2017-Aug-07 15:30N 39°32' E 002°34'3 5.4
2017-Aug-07 15:00N 39°32' E 002°37'2 3.0
2017-Aug-07 14:30N 39°34' E 002°38'0 0.0
2017-Aug-07 14:00N 39°34' E 002°38'0 0.0
2017-Aug-07 13:30N 39°34' E 002°38'0 0.0
2017-Aug-07 13:00N 39°34' E 002°38'0 0.0
2017-Aug-07 12:30N 39°34' E 002°38'0 0.0
2017-Aug-07 12:00N 39°34' E 002°38'0 0.0
2017-Aug-07 11:30N 39°34' E 002°38'0 0.0
2017-Aug-07 11:00N 39°34' E 002°38'0 0.0
2017-Aug-07 10:30N 39°34' E 002°38'0 0.0
2017-Aug-07 10:00N 39°34' E 002°38'0 0.0
2017-Aug-07 09:30N 39°34' E 002°38'0 0.0
2017-Aug-07 09:00N 39°34' E 002°38'0 0.0
2017-Aug-07 08:30N 39°34' E 002°38'0 0.0
2017-Aug-07 08:00N 39°34' E 002°38'1 1.1
2017-Aug-07 07:30N 39°33' E 002°38'1 1.0
2017-Aug-07 07:00N 39°34' E 002°38'0 0.0
2017-Aug-07 06:30N 39°34' E 002°38'0 0.0
2017-Aug-07 06:01N 39°34' E 002°38'0 0.0
2017-Aug-07 05:31N 39°34' E 002°38'0 0.0
2017-Aug-07 05:01N 39°34' E 002°38'0 0.0
2017-Aug-07 04:30N 39°34' E 002°38'0 0.0
2017-Aug-07 04:00N 39°34' E 002°38'0 0.0
2017-Aug-07 03:30N 39°34' E 002°38'0 0.0
2017-Aug-07 03:00N 39°34' E 002°38'0 0.0
2017-Aug-07 02:31N 39°34' E 002°38'0 0.0
2017-Aug-07 02:00N 39°34' E 002°38'0 0.0
2017-Aug-07 01:30N 39°34' E 002°38'0 0.0
2017-Aug-07 01:00N 39°34' E 002°38'0 0.0
2017-Aug-07 00:30N 39°34' E 002°38'0 0.0
2017-Aug-07 00:00N 39°34' E 002°38'0 0.0
2017-Aug-06 23:30N 39°34' E 002°38'0 0.0
2017-Aug-06 23:00N 39°34' E 002°38'0 0.0
2017-Aug-06 22:30N 39°34' E 002°38'0 0.0
2017-Aug-06 22:00N 39°34' E 002°38'0 0.0
2017-Aug-06 21:30N 39°34' E 002°38'0 0.0
2017-Aug-06 21:00N 39°34' E 002°38'0 0.0
2017-Aug-06 20:30N 39°34' E 002°38'0 0.0
2017-Aug-06 20:00N 39°34' E 002°38'0 0.0
2017-Aug-06 19:30N 39°34' E 002°38'0 0.0
2017-Aug-06 19:00N 39°34' E 002°38'0 0.0
2017-Aug-06 18:31N 39°34' E 002°38'0 0.0
2017-Aug-06 18:00N 39°34' E 002°38'0 0.0
2017-Aug-06 17:30N 39°34' E 002°38'0 0.0
2017-Aug-06 17:00N 39°34' E 002°38'0 0.0
2017-Aug-06 16:30N 39°34' E 002°38'0 0.0
2017-Aug-06 16:00N 39°34' E 002°38'0 0.0
2017-Aug-06 15:30N 39°34' E 002°38'0 0.0
2017-Aug-06 15:00N 39°34' E 002°38'0 0.0
2017-Aug-06 14:30N 39°34' E 002°38'0 0.0
2017-Aug-06 13:30N 39°34' E 002°38'0 0.0
2017-Aug-06 13:00N 39°34' E 002°38'0 0.0
2017-Aug-06 12:30N 39°34' E 002°38'0 0.0
2017-Aug-06 12:00N 39°34' E 002°38'0 0.0
2017-Aug-06 11:30N 39°34' E 002°38'0 0.0
2017-Aug-06 11:00N 39°34' E 002°38'0 0.0
2017-Aug-06 10:30N 39°34' E 002°38'0 0.0
2017-Aug-06 10:00N 39°34' E 002°38'0 0.0
2017-Aug-06 09:30N 39°34' E 002°38'0 0.0
2017-Aug-06 09:00N 39°34' E 002°38'0 0.0
2017-Aug-06 08:30N 39°34' E 002°38'0 0.0
2017-Aug-06 08:00N 39°34' E 002°38'0 0.0
2017-Aug-06 07:30N 39°34' E 002°38'0 0.0
2017-Aug-06 07:00N 39°34' E 002°38'0 0.0
2017-Aug-06 06:30N 39°34' E 002°38'0 0.0
2017-Aug-06 06:00N 39°34' E 002°38'0 0.0
2017-Aug-06 05:30N 39°34' E 002°38'0 0.0
2017-Aug-06 05:00N 39°34' E 002°38'0 0.0
2017-Aug-06 04:30N 39°34' E 002°38'0 0.0
2017-Aug-06 04:00N 39°34' E 002°38'0 0.0
2017-Aug-06 03:30N 39°34' E 002°38'0 0.0
2017-Aug-06 03:00N 39°34' E 002°38'0 0.0
2017-Aug-06 02:30N 39°34' E 002°38'0 0.0
2017-Aug-06 02:00N 39°34' E 002°38'0 0.0
2017-Aug-06 01:21N 39°34' E 002°38'0 0.0
2017-Aug-06 01:00N 39°34' E 002°38'0 0.0
2017-Aug-06 00:30N 39°34' E 002°38'0 0.0
2017-Aug-06 00:00N 39°34' E 002°38'0 0.0
2017-Aug-05 23:30N 39°34' E 002°38'0 0.0
2017-Aug-05 23:00N 39°34' E 002°38'0 0.0
2017-Aug-05 22:30N 39°34' E 002°38'0 0.0
2017-Aug-05 22:00N 39°34' E 002°38'0 0.0
2017-Aug-05 21:30N 39°34' E 002°38'0 0.0
2017-Aug-05 21:00N 39°34' E 002°38'0 0.0
2017-Aug-05 20:31N 39°34' E 002°38'0 0.0
2017-Aug-05 20:00N 39°34' E 002°38'0 0.0
2017-Aug-05 19:30N 39°34' E 002°38'0 0.0
2017-Aug-05 19:00N 39°34' E 002°38'0 0.0
2017-Aug-05 18:30N 39°34' E 002°38'0 0.0
2017-Aug-05 18:00N 39°34' E 002°38'0 0.0
2017-Aug-05 17:30N 39°34' E 002°38'0 0.0
2017-Aug-05 17:00N 39°34' E 002°38'0 0.0
2017-Aug-05 16:30N 39°34' E 002°38'0 0.0
2017-Aug-05 16:00N 39°34' E 002°38'0 0.0
2017-Aug-05 15:30N 39°34' E 002°38'0 0.0
2017-Aug-05 15:00N 39°34' E 002°38'0 0.0
2017-Aug-05 14:31N 39°34' E 002°38'0 0.0
2017-Aug-05 14:00N 39°34' E 002°38'0 0.0
2017-Aug-05 13:30N 39°34' E 002°38'0 0.0
2017-Aug-05 13:00N 39°34' E 002°38'0 0.0
2017-Aug-05 12:30N 39°34' E 002°38'0 0.0
2017-Aug-05 12:00N 39°34' E 002°38'0 0.0
2017-Aug-05 11:30N 39°34' E 002°38'0 0.0
2017-Aug-05 11:00N 39°34' E 002°38'0 0.0
2017-Aug-05 10:30N 39°34' E 002°38'0 0.0
2017-Aug-05 10:00N 39°34' E 002°38'0 0.0
2017-Aug-05 09:30N 39°34' E 002°38'0 0.0
2017-Aug-05 09:00N 39°34' E 002°38'0 0.0
2017-Aug-05 08:30N 39°34' E 002°38'0 0.0
2017-Aug-05 08:00N 39°34' E 002°38'0 0.0
2017-Aug-05 07:30N 39°34' E 002°38'0 0.0
2017-Aug-05 07:00N 39°34' E 002°38'0 0.0
2017-Aug-05 06:30N 39°34' E 002°38'0 0.0
2017-Aug-05 06:00N 39°34' E 002°38'0 0.0
2017-Aug-05 05:30N 39°34' E 002°38'0 0.0
2017-Aug-05 05:00N 39°34' E 002°38'0 0.0
2017-Aug-05 04:30N 39°34' E 002°38'0 0.0
2017-Aug-05 04:00N 39°34' E 002°38'0 0.0
2017-Aug-05 03:30N 39°34' E 002°38'0 0.0
2017-Aug-05 03:00N 39°34' E 002°38'0 0.0
2017-Aug-05 02:30N 39°34' E 002°38'0 0.0
2017-Aug-05 02:00N 39°34' E 002°38'0 0.0
2017-Aug-05 01:21N 39°34' E 002°38'0 0.0
2017-Aug-05 01:00N 39°34' E 002°38'0 0.0
2017-Aug-05 00:30N 39°34' E 002°38'0 0.0
2017-Aug-05 00:00N 39°34' E 002°38'0 0.0
2017-Aug-04 23:30N 39°34' E 002°38'0 0.0
2017-Aug-04 23:00N 39°34' E 002°38'0 0.0
2017-Aug-04 22:30N 39°34' E 002°38'0 0.0
2017-Aug-04 22:00N 39°34' E 002°38'0 0.0
2017-Aug-04 21:31N 39°34' E 002°38'0 0.0
2017-Aug-04 21:00N 39°34' E 002°38'0 0.0
2017-Aug-04 20:30N 39°34' E 002°38'0 0.0
2017-Aug-04 20:00N 39°34' E 002°38'0 0.0
2017-Aug-04 19:31N 39°34' E 002°38'0 0.0
2017-Aug-04 19:01N 39°34' E 002°38'0 0.0
2017-Aug-04 18:30N 39°34' E 002°38'0 0.0
2017-Aug-04 18:00N 39°34' E 002°38'0 0.0
2017-Aug-04 17:30N 39°34' E 002°38'0 0.0
2017-Aug-04 17:00N 39°34' E 002°38'0 0.0
2017-Aug-04 16:30N 39°34' E 002°38'0 0.0
2017-Aug-04 16:01N 39°34' E 002°38'0 0.0
2017-Aug-04 15:30N 39°34' E 002°38'  
Track history (hours):
 
Tides and Currents Weather Stations Pressure Air Temp Water Temp Dewpoint Dewpoint Depression Visibility Wind Speed Wind Dir Waves Ship Positions

M/y A.b.normal

Last reported at 2017-Aug-14 15:10 UTC. Time now 2017-Aug-18 04:53 UTC.
Position N 38°58' E 001°13'.

Length 28 m; draft 3 m.

Type: Pleasure craft. MMSI: 235079977.

Date/timePositionNaut miles runAvg speedWind from/ knotsBaromVisibWave heightAir tempDewpointWater temp
2017-Aug-14 15:10N 38°58' E 001°13'0 0.0
2017-Aug-14 10:58N 38°58' E 001°13'64 1.3
2017-Aug-12 10:20N 39°31' E 002°24'1 4.4
2017-Aug-12 10:00N 39°31' E 002°25'3 0.2
2017-Aug-11 17:00N 39°29' E 002°28'3 6.5
2017-Aug-11 16:30N 39°28' E 002°32'1 2.3
2017-Aug-11 16:00N 39°29' E 002°32'0 0.0
2017-Aug-11 15:30N 39°29' E 002°32'0 0.0
2017-Aug-11 15:00N 39°29' E 002°32'0 0.0
2017-Aug-11 14:30N 39°29' E 002°32'0 0.0
2017-Aug-11 13:30N 39°29' E 002°32'0 0.0
2017-Aug-11 13:00N 39°29' E 002°32'0 0.0
2017-Aug-11 12:30N 39°29' E 002°32'1 1.3
2017-Aug-11 12:00N 39°29' E 002°32'3 5.7
2017-Aug-11 11:29N 39°32' E 002°34'0 0.0
2017-Aug-11 11:01N 39°32' E 002°34'0 0.0
2017-Aug-11 10:30N 39°32' E 002°34'0 0.0
2017-Aug-11 10:01N 39°32' E 002°34'0 0.0
2017-Aug-11 09:30N 39°32' E 002°34'0 0.0
2017-Aug-11 09:00N 39°32' E 002°34'0 0.0
2017-Aug-11 08:30N 39°32' E 002°34'0 0.0
2017-Aug-11 08:00N 39°32' E 002°34'0 0.0
2017-Aug-11 07:31N 39°32' E 002°34'0 0.0
2017-Aug-11 07:00N 39°32' E 002°34'0 0.0
2017-Aug-11 06:29N 39°32' E 002°34'0 0.0
2017-Aug-11 05:57N 39°32' E 002°34'0 0.0
2017-Aug-11 05:30N 39°32' E 002°34'0 0.0
2017-Aug-11 04:59N 39°32' E 002°34'0 0.0
2017-Aug-11 04:30N 39°32' E 002°34'0 0.0
2017-Aug-11 04:00N 39°32' E 002°34'0 0.0
2017-Aug-11 03:30N 39°32' E 002°34'0 0.0
2017-Aug-11 03:00N 39°32' E 002°34'0 0.0
2017-Aug-11 02:30N 39°32' E 002°34'0 0.0
2017-Aug-11 02:00N 39°32' E 002°34'0 0.0
2017-Aug-11 01:30N 39°32' E 002°34'0 0.0
2017-Aug-11 01:00N 39°32' E 002°34'0 0.0
2017-Aug-11 00:30N 39°32' E 002°34'0 0.0
2017-Aug-11 00:00N 39°32' E 002°34'0 0.0
2017-Aug-10 23:30N 39°32' E 002°34'0 0.0
2017-Aug-10 23:00N 39°32' E 002°34'0 0.0
2017-Aug-10 22:30N 39°32' E 002°34'0 0.0
2017-Aug-10 22:00N 39°32' E 002°34'0 0.0
2017-Aug-10 21:31N 39°32' E 002°34'0 0.0
2017-Aug-10 21:00N 39°32' E 002°34'0 0.0
2017-Aug-10 20:30N 39°32' E 002°34'0 0.0
2017-Aug-10 20:00N 39°32' E 002°34'0 0.0
2017-Aug-10 19:30N 39°32' E 002°34'0 0.0
2017-Aug-10 19:00N 39°32' E 002°34'0 0.0
2017-Aug-10 18:29N 39°32' E 002°34'0 0.0
2017-Aug-10 18:00N 39°32' E 002°34'0 0.0
2017-Aug-10 17:30N 39°32' E 002°34'0 0.0
2017-Aug-10 17:00N 39°32' E 002°34'0 0.0
2017-Aug-10 16:30N 39°32' E 002°34'0 0.0
2017-Aug-10 16:00N 39°32' E 002°34'0 0.0
2017-Aug-10 15:30N 39°32' E 002°34'0 0.0
2017-Aug-10 14:59N 39°32' E 002°34'0 0.0
2017-Aug-10 14:30N 39°32' E 002°34'0 0.0
2017-Aug-10 14:00N 39°32' E 002°34'0 0.0
2017-Aug-10 13:30N 39°32' E 002°34'0 0.0
2017-Aug-10 13:00N 39°32' E 002°34'0 0.0
2017-Aug-10 12:29N 39°32' E 002°34'0 0.0
2017-Aug-10 12:00N 39°32' E 002°34'0 0.0
2017-Aug-10 11:30N 39°32' E 002°34'0 0.0
2017-Aug-10 11:00N 39°32' E 002°34'0 0.0
2017-Aug-10 10:30N 39°32' E 002°34'0 0.0
2017-Aug-10 10:00N 39°32' E 002°34'0 0.0
2017-Aug-10 09:30N 39°32' E 002°34'0 0.0
2017-Aug-10 09:00N 39°32' E 002°34'0 0.0
2017-Aug-10 08:30N 39°32' E 002°34'0 0.0
2017-Aug-10 08:00N 39°32' E 002°34'0 0.0
2017-Aug-10 07:30N 39°32' E 002°34'0 0.0
2017-Aug-10 07:00N 39°32' E 002°34'0 0.0
2017-Aug-10 06:30N 39°32' E 002°34'0 0.0
2017-Aug-10 06:00N 39°32' E 002°34'0 0.0
2017-Aug-10 05:30N 39°32' E 002°34'0 0.0
2017-Aug-10 05:00N 39°32' E 002°34'0 0.0
2017-Aug-10 04:30N 39°32' E 002°34'0 0.0
2017-Aug-10 04:01N 39°32' E 002°34'0 0.0
2017-Aug-10 03:30N 39°32' E 002°34'0 0.0
2017-Aug-10 03:00N 39°32' E 002°34'0 0.0
2017-Aug-10 02:30N 39°32' E 002°34'0 0.0
2017-Aug-10 02:00N 39°32' E 002°34'0 0.0
2017-Aug-10 01:30N 39°32' E 002°34'0 0.0
2017-Aug-10 01:00N 39°32' E 002°34'0 0.0
2017-Aug-10 00:30N 39°32' E 002°34'0 0.0
2017-Aug-10 00:00N 39°32' E 002°34'0 0.0
2017-Aug-09 23:30N 39°32' E 002°34'0 0.0
2017-Aug-09 23:00N 39°32' E 002°34'0 0.0
2017-Aug-09 22:30N 39°32' E 002°34'0 0.0
2017-Aug-09 22:00N 39°32' E 002°34'0 0.0
2017-Aug-09 21:30N 39°32' E 002°34'0 0.0
2017-Aug-09 21:00N 39°32' E 002°34'0 0.0
2017-Aug-09 20:30N 39°32' E 002°34'0 0.0
2017-Aug-09 19:59N 39°32' E 002°34'0 0.0
2017-Aug-09 19:30N 39°32' E 002°34'0 0.0
2017-Aug-09 18:59N 39°32' E 002°34'0 0.0
2017-Aug-09 18:30N 39°32' E 002°34'0 0.0
2017-Aug-09 18:00N 39°32' E 002°34'0 0.0
2017-Aug-09 17:30N 39°32' E 002°34'0 0.0
2017-Aug-09 17:00N 39°32' E 002°34'0 0.0
2017-Aug-09 16:30N 39°32' E 002°34'0 0.0
2017-Aug-09 16:00N 39°32' E 002°34'3 5.2
2017-Aug-09 15:30N 39°29' E 002°33'4 7.8
2017-Aug-09 15:00N 39°27' E 002°28'5 9.6
2017-Aug-09 14:30N 39°32' E 002°25'0 0.4
2017-Aug-09 13:19N 39°32' E 002°25'0 0.0
2017-Aug-09 12:34N 39°32' E 002°25'0 0.0
2017-Aug-09 12:19N 39°32' E 002°25'0 0.0
2017-Aug-09 11:55N 39°32' E 002°25'0 0.0
2017-Aug-09 11:30N 39°32' E 002°25'0 0.0
2017-Aug-09 10:48N 39°32' E 002°25'0 0.0
2017-Aug-09 10:27N 39°32' E 002°25'0 0.2
2017-Aug-09 09:40N 39°32' E 002°25'1 7.7
2017-Aug-09 09:30N 39°31' E 002°25'510.0
2017-Aug-09 09:00N 39°27' E 002°30'4 9.0
2017-Aug-09 08:31N 39°31' E 002°33'1 2.8
2017-Aug-09 08:00N 39°32' E 002°34'0 0.0
2017-Aug-09 07:30N 39°32' E 002°34'0 0.0
2017-Aug-09 07:00N 39°32' E 002°34'0 0.0
2017-Aug-09 06:30N 39°32' E 002°34'0 0.0
2017-Aug-09 06:00N 39°32' E 002°34'0 0.0
2017-Aug-09 05:31N 39°32' E 002°34'0 0.0
2017-Aug-09 05:01N 39°32' E 002°34'0 0.0
2017-Aug-09 04:30N 39°32' E 002°34'0 0.0
2017-Aug-09 04:00N 39°32' E 002°34'0 0.0
2017-Aug-09 03:30N 39°32' E 002°34'0 0.0
2017-Aug-09 03:01N 39°32' E 002°34'0 0.0
2017-Aug-09 02:30N 39°32' E 002°34'0 0.0
2017-Aug-09 02:00N 39°32' E 002°34'0 0.0
2017-Aug-09 01:30N 39°32' E 002°34'0 0.0
2017-Aug-09 01:00N 39°32' E 002°34'0 0.0
2017-Aug-09 00:30N 39°32' E 002°34'0 0.0
2017-Aug-09 00:00N 39°32' E 002°34'0 0.0
2017-Aug-08 23:30N 39°32' E 002°34'0 0.0
2017-Aug-08 23:00N 39°32' E 002°34'0 0.0
2017-Aug-08 22:30N 39°32' E 002°34'0 0.0
2017-Aug-08 22:00N 39°32' E 002°34'0 0.0
2017-Aug-08 21:30N 39°32' E 002°34'0 0.0
2017-Aug-08 21:00N 39°32' E 002°34'0 0.0
2017-Aug-08 20:30N 39°32' E 002°34'0 0.0
2017-Aug-08 20:00N 39°32' E 002°34'0 0.0
2017-Aug-08 19:30N 39°32' E 002°34'0 0.0
2017-Aug-08 19:00N 39°32' E 002°34'0 0.0
2017-Aug-08 18:30N 39°32' E 002°34'0 0.0
2017-Aug-08 18:00N 39°32' E 002°34'0 0.0
2017-Aug-08 17:30N 39°32' E 002°34'0 0.0
2017-Aug-08 17:00N 39°32' E 002°34'0 0.0
2017-Aug-08 16:30N 39°32' E 002°34'0 0.0
2017-Aug-08 16:00N 39°32' E 002°34'0 0.0
2017-Aug-08 15:30N 39°32' E 002°34'0 0.0
2017-Aug-08 15:00N 39°32' E 002°34'0 0.0
2017-Aug-08 14:28N 39°32' E 002°34'0 0.0
2017-Aug-08 14:00N 39°32' E 002°34'0 0.0
2017-Aug-08 13:30N 39°32' E 002°34'0 0.0
2017-Aug-08 13:00N 39°32' E 002°34'0 0.0
2017-Aug-08 12:30N 39°32' E 002°34'0 0.0
2017-Aug-08 12:00N 39°32' E 002°34'0 0.0
2017-Aug-08 11:31N 39°32' E 002°34'0 0.0
2017-Aug-08 11:00N 39°32' E 002°34'0 0.0
2017-Aug-08 10:30N 39°32' E 002°34'0 0.0
2017-Aug-08 10:00N 39°32' E 002°34'0 0.0
2017-Aug-08 09:29N 39°32' E 002°34'0 0.0
2017-Aug-08 09:00N 39°32' E 002°34'0 0.0
2017-Aug-08 08:30N 39°32' E 002°34'0 0.0
2017-Aug-08 08:00N 39°32' E 002°34'0 0.0
2017-Aug-08 07:31N 39°32' E 002°34'0 0.0
2017-Aug-08 07:00N 39°32' E 002°34'0 0.0
2017-Aug-08 06:30N 39°32' E 002°34'0 0.0
2017-Aug-08 06:00N 39°32' E 002°34'0 0.0
2017-Aug-08 05:31N 39°32' E 002°34'0 0.0
2017-Aug-08 05:01N 39°32' E 002°34'0 0.0
2017-Aug-08 04:30N 39°32' E 002°34'0 0.0
2017-Aug-08 04:00N 39°32' E 002°34'0 0.0
2017-Aug-08 03:30N 39°32' E 002°34'0 0.0
2017-Aug-08 03:00N 39°32' E 002°34'0 0.0
2017-Aug-08 02:30N 39°32' E 002°34'0 0.0
2017-Aug-08 02:00N 39°32' E 002°34'0 0.0
2017-Aug-08 01:30N 39°32' E 002°34'0 0.0
2017-Aug-08 01:00N 39°32' E 002°34'0 0.0
2017-Aug-08 00:30N 39°32' E 002°34'0 0.0
2017-Aug-08 00:00N 39°32' E 002°34'0 0.0
2017-Aug-07 23:30N 39°32' E 002°34'0 0.0
2017-Aug-07 23:00N 39°32' E 002°34'0 0.0
2017-Aug-07 22:29N 39°32' E 002°34'0 0.0
2017-Aug-07 22:00N 39°32' E 002°34'0 0.0
2017-Aug-07 21:30N 39°32' E 002°34'0 0.0
2017-Aug-07 21:00N 39°32' E 002°34'0 0.0
2017-Aug-07 20:30N 39°32' E 002°34'0 0.0
2017-Aug-07 20:00N 39°32' E 002°34'0 0.0
2017-Aug-07 19:30N 39°32' E 002°34'0 0.0
2017-Aug-07 19:00N 39°32' E 002°34'0 0.0
2017-Aug-07 18:30N 39°32' E 002°34'0 0.0
2017-Aug-07 18:00N 39°32' E 002°34'0 0.0
2017-Aug-07 17:30N 39°32' E 002°34'0 0.0
2017-Aug-07 17:00N 39°32' E 002°34'0 0.0
2017-Aug-07 16:30N 39°32' E 002°34'0 0.0
2017-Aug-07 16:00N 39°32' E 002°34'0 0.0
2017-Aug-07 15:30N 39°32' E 002°34'3 5.4
2017-Aug-07 15:00N 39°32' E 002°37'2 3.0
2017-Aug-07 14:30N 39°34' E 002°38'0 0.0
2017-Aug-07 14:00N 39°34' E 002°38'0 0.0
2017-Aug-07 13:30N 39°34' E 002°38'0 0.0
2017-Aug-07 13:00N 39°34' E 002°38'0 0.0
2017-Aug-07 12:30N 39°34' E 002°38'0 0.0
2017-Aug-07 12:00N 39°34' E 002°38'0 0.0
2017-Aug-07 11:30N 39°34' E 002°38'0 0.0
2017-Aug-07 11:00N 39°34' E 002°38'0 0.0
2017-Aug-07 10:30N 39°34' E 002°38'0 0.0
2017-Aug-07 10:00N 39°34' E 002°38'0 0.0
2017-Aug-07 09:30N 39°34' E 002°38'0 0.0
2017-Aug-07 09:00N 39°34' E 002°38'0 0.0
2017-Aug-07 08:30N 39°34' E 002°38'0 0.0
2017-Aug-07 08:00N 39°34' E 002°38'1 1.1
2017-Aug-07 07:30N 39°33' E 002°38'1 1.0
2017-Aug-07 07:00N 39°34' E 002°38'0 0.0
2017-Aug-07 06:30N 39°34' E 002°38'0 0.0
2017-Aug-07 06:01N 39°34' E 002°38'0 0.0
2017-Aug-07 05:31N 39°34' E 002°38'0 0.0
2017-Aug-07 05:01N 39°34' E 002°38'0 0.0
2017-Aug-07 04:30N 39°34' E 002°38'0 0.0
2017-Aug-07 04:00N 39°34' E 002°38'0 0.0
2017-Aug-07 03:30N 39°34' E 002°38'0 0.0
2017-Aug-07 03:00N 39°34' E 002°38'0 0.0
2017-Aug-07 02:31N 39°34' E 002°38'0 0.0
2017-Aug-07 02:00N 39°34' E 002°38'0 0.0
2017-Aug-07 01:30N 39°34' E 002°38'0 0.0
2017-Aug-07 01:00N 39°34' E 002°38'0 0.0
2017-Aug-07 00:30N 39°34' E 002°38'0 0.0
2017-Aug-07 00:00N 39°34' E 002°38'0 0.0
2017-Aug-06 23:30N 39°34' E 002°38'0 0.0
2017-Aug-06 23:00N 39°34' E 002°38'0 0.0
2017-Aug-06 22:30N 39°34' E 002°38'0 0.0
2017-Aug-06 22:00N 39°34' E 002°38'0 0.0
2017-Aug-06 21:30N 39°34' E 002°38'0 0.0
2017-Aug-06 21:00N 39°34' E 002°38'0 0.0
2017-Aug-06 20:30N 39°34' E 002°38'0 0.0
2017-Aug-06 20:00N 39°34' E 002°38'0 0.0
2017-Aug-06 19:30N 39°34' E 002°38'0 0.0
2017-Aug-06 19:00N 39°34' E 002°38'0 0.0
2017-Aug-06 18:31N 39°34' E 002°38'0 0.0
2017-Aug-06 18:00N 39°34' E 002°38'0 0.0
2017-Aug-06 17:30N 39°34' E 002°38'0 0.0
2017-Aug-06 17:00N 39°34' E 002°38'0 0.0
2017-Aug-06 16:30N 39°34' E 002°38'0 0.0
2017-Aug-06 16:00N 39°34' E 002°38'0 0.0
2017-Aug-06 15:30N 39°34' E 002°38'0 0.0
2017-Aug-06 15:00N 39°34' E 002°38'0 0.0
2017-Aug-06 14:30N 39°34' E 002°38'0 0.0
2017-Aug-06 13:30N 39°34' E 002°38'0 0.0
2017-Aug-06 13:00N 39°34' E 002°38'0 0.0
2017-Aug-06 12:30N 39°34' E 002°38'0 0.0
2017-Aug-06 12:00N 39°34' E 002°38'0 0.0
2017-Aug-06 11:30N 39°34' E 002°38'0 0.0
2017-Aug-06 11:00N 39°34' E 002°38'0 0.0
2017-Aug-06 10:30N 39°34' E 002°38'0 0.0
2017-Aug-06 10:00N 39°34' E 002°38'0 0.0
2017-Aug-06 09:30N 39°34' E 002°38'0 0.0
2017-Aug-06 09:00N 39°34' E 002°38'0 0.0
2017-Aug-06 08:30N 39°34' E 002°38'0 0.0
2017-Aug-06 08:00N 39°34' E 002°38'0 0.0
2017-Aug-06 07:30N 39°34' E 002°38'0 0.0
2017-Aug-06 07:00N 39°34' E 002°38'0 0.0
2017-Aug-06 06:30N 39°34' E 002°38'0 0.0
2017-Aug-06 06:00N 39°34' E 002°38'0 0.0
2017-Aug-06 05:30N 39°34' E 002°38'0 0.0
2017-Aug-06 05:00N 39°34' E 002°38'0 0.0
2017-Aug-06 04:30N 39°34' E 002°38'0 0.0
2017-Aug-06 04:00N 39°34' E 002°38'0 0.0
2017-Aug-06 03:30N 39°34' E 002°38'0 0.0
2017-Aug-06 03:00N 39°34' E 002°38'0 0.0
2017-Aug-06 02:30N 39°34' E 002°38'0 0.0
2017-Aug-06 02:00N 39°34' E 002°38'0 0.0
2017-Aug-06 01:21N 39°34' E 002°38'0 0.0
2017-Aug-06 01:00N 39°34' E 002°38'0 0.0
2017-Aug-06 00:30N 39°34' E 002°38'0 0.0
2017-Aug-06 00:00N 39°34' E 002°38'0 0.0
2017-Aug-05 23:30N 39°34' E 002°38'0 0.0
2017-Aug-05 23:00N 39°34' E 002°38'0 0.0
2017-Aug-05 22:30N 39°34' E 002°38'0 0.0
2017-Aug-05 22:00N 39°34' E 002°38'0 0.0
2017-Aug-05 21:30N 39°34' E 002°38'0 0.0
2017-Aug-05 21:00N 39°34' E 002°38'0 0.0
2017-Aug-05 20:31N 39°34' E 002°38'0 0.0
2017-Aug-05 20:00N 39°34' E 002°38'0 0.0
2017-Aug-05 19:30N 39°34' E 002°38'0 0.0
2017-Aug-05 19:00N 39°34' E 002°38'0 0.0
2017-Aug-05 18:30N 39°34' E 002°38'0 0.0
2017-Aug-05 18:00N 39°34' E 002°38'0 0.0
2017-Aug-05 17:30N 39°34' E 002°38'0 0.0
2017-Aug-05 17:00N 39°34' E 002°38'0 0.0
2017-Aug-05 16:30N 39°34' E 002°38'0 0.0
2017-Aug-05 16:00N 39°34' E 002°38'0 0.0
2017-Aug-05 15:30N 39°34' E 002°38'0 0.0
2017-Aug-05 15:00N 39°34' E 002°38'0 0.0
2017-Aug-05 14:31N 39°34' E 002°38'0 0.0
2017-Aug-05 14:00N 39°34' E 002°38'0 0.0
2017-Aug-05 13:30N 39°34' E 002°38'0 0.0
2017-Aug-05 13:00N 39°34' E 002°38'0 0.0
2017-Aug-05 12:30N 39°34' E 002°38'0 0.0
2017-Aug-05 12:00N 39°34' E 002°38'0 0.0
2017-Aug-05 11:30N 39°34' E 002°38'0 0.0
2017-Aug-05 11:00N 39°34' E 002°38'0 0.0
2017-Aug-05 10:30N 39°34' E 002°38'0 0.0
2017-Aug-05 10:00N 39°34' E 002°38'0 0.0
2017-Aug-05 09:30N 39°34' E 002°38'0 0.0
2017-Aug-05 09:00N 39°34' E 002°38'0 0.0
2017-Aug-05 08:30N 39°34' E 002°38'0 0.0
2017-Aug-05 08:00N 39°34' E 002°38'0 0.0
2017-Aug-05 07:30N 39°34' E 002°38'0 0.0
2017-Aug-05 07:00N 39°34' E 002°38'0 0.0
2017-Aug-05 06:30N 39°34' E 002°38'0 0.0
2017-Aug-05 06:00N 39°34' E 002°38'0 0.0
2017-Aug-05 05:30N 39°34' E 002°38'0 0.0
2017-Aug-05 05:00N 39°34' E 002°38'0 0.0
2017-Aug-05 04:30N 39°34' E 002°38'0 0.0
2017-Aug-05 04:00N 39°34' E 002°38'0 0.0
2017-Aug-05 03:30N 39°34' E 002°38'0 0.0
2017-Aug-05 03:00N 39°34' E 002°38'0 0.0
2017-Aug-05 02:30N 39°34' E 002°38'0 0.0
2017-Aug-05 02:00N 39°34' E 002°38'0 0.0
2017-Aug-05 01:21N 39°34' E 002°38'0 0.0
2017-Aug-05 01:00N 39°34' E 002°38'0 0.0
2017-Aug-05 00:30N 39°34' E 002°38'0 0.0
2017-Aug-05 00:00N 39°34' E 002°38'0 0.0
2017-Aug-04 23:30N 39°34' E 002°38'0 0.0
2017-Aug-04 23:00N 39°34' E 002°38'0 0.0
2017-Aug-04 22:30N 39°34' E 002°38'0 0.0
2017-Aug-04 22:00N 39°34' E 002°38'0 0.0
2017-Aug-04 21:31N 39°34' E 002°38'0 0.0
2017-Aug-04 21:00N 39°34' E 002°38'0 0.0
2017-Aug-04 20:30N 39°34' E 002°38'0 0.0
2017-Aug-04 20:00N 39°34' E 002°38'0 0.0
2017-Aug-04 19:31N 39°34' E 002°38'0 0.0
2017-Aug-04 19:01N 39°34' E 002°38'0 0.0
2017-Aug-04 18:30N 39°34' E 002°38'0 0.0
2017-Aug-04 18:00N 39°34' E 002°38'0 0.0
2017-Aug-04 17:30N 39°34' E 002°38'0 0.0
2017-Aug-04 17:00N 39°34' E 002°38'0 0.0
2017-Aug-04 16:30N 39°34' E 002°38'0 0.0
2017-Aug-04 16:01N 39°34' E 002°38'0 0.0
2017-Aug-04 15:30N 39°34' E 002°38'  

Dump ship's entire track history